sensor_id;sensor_type;location;lat;lon;timestamp;temperature;humidity
66140;DHT22;52945;51.908;8.364;2024-03-29T00:00:55;10.00;61.30
66140;DHT22;52945;51.908;8.364;2024-03-29T00:03:56;10.00;61.30
66140;DHT22;52945;51.908;8.364;2024-03-29T00:06:56;10.10;61.10
66140;DHT22;52945;51.908;8.364;2024-03-29T00:09:57;10.00;61.40
66140;DHT22;52945;51.908;8.364;2024-03-29T00:12:58;10.10;61.20
66140;DHT22;52945;51.908;8.364;2024-03-29T00:15:58;10.10;61.20
66140;DHT22;52945;51.908;8.364;2024-03-29T00:18:59;10.00;61.40
66140;DHT22;52945;51.908;8.364;2024-03-29T00:22:00;10.00;61.70
66140;DHT22;52945;51.908;8.364;2024-03-29T00:25:01;10.00;61.50
66140;DHT22;52945;51.908;8.364;2024-03-29T00:28:02;10.00;61.30
66140;DHT22;52945;51.908;8.364;2024-03-29T00:31:04;9.90;61.30
66140;DHT22;52945;51.908;8.364;2024-03-29T00:34:04;9.90;61.50
66140;DHT22;52945;51.908;8.364;2024-03-29T00:37:05;9.80;61.50
66140;DHT22;52945;51.908;8.364;2024-03-29T00:40:06;9.80;61.50
66140;DHT22;52945;51.908;8.364;2024-03-29T00:43:07;9.80;61.50
66140;DHT22;52945;51.908;8.364;2024-03-29T00:46:08;9.80;61.70
66140;DHT22;52945;51.908;8.364;2024-03-29T00:49:09;9.80;61.40
66140;DHT22;52945;51.908;8.364;2024-03-29T00:52:09;9.70;61.70
66140;DHT22;52945;51.908;8.364;2024-03-29T00:55:10;9.70;61.50
66140;DHT22;52945;51.908;8.364;2024-03-29T00:58:10;9.80;61.60
66140;DHT22;52945;51.908;8.364;2024-03-29T01:01:11;9.80;61.60
66140;DHT22;52945;51.908;8.364;2024-03-29T01:04:12;9.70;61.50
66140;DHT22;52945;51.908;8.364;2024-03-29T01:07:13;9.80;61.40
66140;DHT22;52945;51.908;8.364;2024-03-29T01:10:16;9.80;61.30
66140;DHT22;52945;51.908;8.364;2024-03-29T01:13:17;9.80;61.60
66140;DHT22;52945;51.908;8.364;2024-03-29T01:16:19;9.80;61.30
66140;DHT22;52945;51.908;8.364;2024-03-29T01:19:19;9.80;61.20
66140;DHT22;52945;51.908;8.364;2024-03-29T01:22:20;9.80;61.40
66140;DHT22;52945;51.908;8.364;2024-03-29T01:25:21;9.70;61.20
66140;DHT22;52945;51.908;8.364;2024-03-29T01:28:21;9.70;61.20
66140;DHT22;52945;51.908;8.364;2024-03-29T01:31:23;9.70;61.00
66140;DHT22;52945;51.908;8.364;2024-03-29T01:34:23;9.70;60.90
66140;DHT22;52945;51.908;8.364;2024-03-29T01:37:24;9.70;61.10
66140;DHT22;52945;51.908;8.364;2024-03-29T01:40:25;9.70;61.10
66140;DHT22;52945;51.908;8.364;2024-03-29T01:43:25;9.70;61.30
66140;DHT22;52945;51.908;8.364;2024-03-29T01:46:28;9.70;61.30
66140;DHT22;52945;51.908;8.364;2024-03-29T01:49:30;9.70;61.30
66140;DHT22;52945;51.908;8.364;2024-03-29T01:52:31;9.70;61.10
66140;DHT22;52945;51.908;8.364;2024-03-29T01:55:32;9.70;61.20
66140;DHT22;52945;51.908;8.364;2024-03-29T01:58:32;9.70;61.20
66140;DHT22;52945;51.908;8.364;2024-03-29T02:01:34;9.70;61.40
66140;DHT22;52945;51.908;8.364;2024-03-29T02:04:35;9.60;61.10
66140;DHT22;52945;51.908;8.364;2024-03-29T02:07:36;9.60;61.10
66140;DHT22;52945;51.908;8.364;2024-03-29T02:10:38;9.50;61.00
66140;DHT22;52945;51.908;8.364;2024-03-29T02:13:38;9.60;61.20
66140;DHT22;52945;51.908;8.364;2024-03-29T02:16:40;9.60;61.10
66140;DHT22;52945;51.908;8.364;2024-03-29T02:19:42;9.50;61.10
66140;DHT22;52945;51.908;8.364;2024-03-29T02:22:50;9.50;60.90
66140;DHT22;52945;51.908;8.364;2024-03-29T02:25:52;9.50;60.80
66140;DHT22;52945;51.908;8.364;2024-03-29T02:28:52;9.60;60.70
66140;DHT22;52945;51.908;8.364;2024-03-29T02:31:53;9.60;60.40
66140;DHT22;52945;51.908;8.364;2024-03-29T02:34:54;9.60;60.40
66140;DHT22;52945;51.908;8.364;2024-03-29T02:37:54;9.60;60.20
66140;DHT22;52945;51.908;8.364;2024-03-29T02:40:55;9.60;60.00
66140;DHT22;52945;51.908;8.364;2024-03-29T02:43:56;9.70;60.00
66140;DHT22;52945;51.908;8.364;2024-03-29T02:46:56;9.70;59.70
66140;DHT22;52945;51.908;8.364;2024-03-29T02:49:57;9.70;59.70
66140;DHT22;52945;51.908;8.364;2024-03-29T02:52:58;9.70;59.60
66140;DHT22;52945;51.908;8.364;2024-03-29T02:55:58;9.70;59.30
66140;DHT22;52945;51.908;8.364;2024-03-29T02:58:59;9.70;59.20
66140;DHT22;52945;51.908;8.364;2024-03-29T03:01:59;9.80;59.40
66140;DHT22;52945;51.908;8.364;2024-03-29T03:05:00;9.80;59.30
66140;DHT22;52945;51.908;8.364;2024-03-29T03:08:01;9.90;59.10
66140;DHT22;52945;51.908;8.364;2024-03-29T03:11:20;9.90;59.00
66140;DHT22;52945;51.908;8.364;2024-03-29T03:14:20;9.80;59.00
66140;DHT22;52945;51.908;8.364;2024-03-29T03:17:21;9.90;59.00
66140;DHT22;52945;51.908;8.364;2024-03-29T03:20:21;9.90;59.00
66140;DHT22;52945;51.908;8.364;2024-03-29T03:23:23;9.90;59.20
66140;DHT22;52945;51.908;8.364;2024-03-29T03:26:24;10.00;59.20
66140;DHT22;52945;51.908;8.364;2024-03-29T03:29:24;9.90;59.10
66140;DHT22;52945;51.908;8.364;2024-03-29T03:32:25;10.00;59.30
66140;DHT22;52945;51.908;8.364;2024-03-29T03:35:25;10.00;59.30
66140;DHT22;52945;51.908;8.364;2024-03-29T03:38:26;9.90;59.40
66140;DHT22;52945;51.908;8.364;2024-03-29T03:41:27;9.90;59.60
66140;DHT22;52945;51.908;8.364;2024-03-29T03:44:28;10.00;59.70
66140;DHT22;52945;51.908;8.364;2024-03-29T03:47:29;10.00;59.80
66140;DHT22;52945;51.908;8.364;2024-03-29T03:50:29;10.00;59.80
66140;DHT22;52945;51.908;8.364;2024-03-29T03:53:30;10.00;60.00
66140;DHT22;52945;51.908;8.364;2024-03-29T03:56:30;10.00;60.00
66140;DHT22;52945;51.908;8.364;2024-03-29T03:59:31;10.00;59.90
66140;DHT22;52945;51.908;8.364;2024-03-29T04:02:31;10.10;60.10
66140;DHT22;52945;51.908;8.364;2024-03-29T04:05:32;10.10;60.30
66140;DHT22;52945;51.908;8.364;2024-03-29T04:08:33;10.10;60.30
66140;DHT22;52945;51.908;8.364;2024-03-29T04:11:33;10.10;60.80
66140;DHT22;52945;51.908;8.364;2024-03-29T04:14:34;10.10;61.20
66140;DHT22;52945;51.908;8.364;2024-03-29T04:17:35;10.10;61.70
66140;DHT22;52945;51.908;8.364;2024-03-29T04:20:36;10.20;62.90
66140;DHT22;52945;51.908;8.364;2024-03-29T04:23:37;10.20;63.60
66140;DHT22;52945;51.908;8.364;2024-03-29T04:26:38;10.20;64.30
66140;DHT22;52945;51.908;8.364;2024-03-29T04:29:39;10.20;65.10
66140;DHT22;52945;51.908;8.364;2024-03-29T04:32:39;10.10;65.60
66140;DHT22;52945;51.908;8.364;2024-03-29T04:35:40;10.20;65.90
66140;DHT22;52945;51.908;8.364;2024-03-29T04:38:41;10.20;66.50
66140;DHT22;52945;51.908;8.364;2024-03-29T04:41:41;10.10;67.20
66140;DHT22;52945;51.908;8.364;2024-03-29T04:44:42;10.10;67.70
66140;DHT22;52945;51.908;8.364;2024-03-29T04:47:42;10.10;68.30
66140;DHT22;52945;51.908;8.364;2024-03-29T04:50:43;10.10;68.90
66140;DHT22;52945;51.908;8.364;2024-03-29T04:53:44;10.00;69.20
66140;DHT22;52945;51.908;8.364;2024-03-29T04:56:44;10.00;69.50
66140;DHT22;52945;51.908;8.364;2024-03-29T04:59:45;10.00;69.60
66140;DHT22;52945;51.908;8.364;2024-03-29T05:02:45;10.10;69.80
66140;DHT22;52945;51.908;8.364;2024-03-29T05:05:46;10.10;69.90
66140;DHT22;52945;51.908;8.364;2024-03-29T05:08:47;10.10;70.00
66140;DHT22;52945;51.908;8.364;2024-03-29T05:11:48;10.10;70.30
66140;DHT22;52945;51.908;8.364;2024-03-29T05:14:49;10.10;70.80
66140;DHT22;52945;51.908;8.364;2024-03-29T05:17:49;10.10;70.50
66140;DHT22;52945;51.908;8.364;2024-03-29T05:20:50;10.10;70.40
66140;DHT22;52945;51.908;8.364;2024-03-29T05:23:51;10.10;70.60
66140;DHT22;52945;51.908;8.364;2024-03-29T05:26:52;10.20;70.70
66140;DHT22;52945;51.908;8.364;2024-03-29T05:29:52;10.20;70.80
66140;DHT22;52945;51.908;8.364;2024-03-29T05:32:53;10.20;71.20
66140;DHT22;52945;51.908;8.364;2024-03-29T05:35:54;10.20;71.30
66140;DHT22;52945;51.908;8.364;2024-03-29T05:38:54;10.20;71.30
66140;DHT22;52945;51.908;8.364;2024-03-29T05:41:55;10.20;71.50
66140;DHT22;52945;51.908;8.364;2024-03-29T05:44:55;10.20;71.50
66140;DHT22;52945;51.908;8.364;2024-03-29T05:47:58;10.20;71.50
66140;DHT22;52945;51.908;8.364;2024-03-29T05:50:58;10.20;71.60
66140;DHT22;52945;51.908;8.364;2024-03-29T05:53:59;10.20;71.70
66140;DHT22;52945;51.908;8.364;2024-03-29T05:57:00;10.20;72.00
66140;DHT22;52945;51.908;8.364;2024-03-29T06:00:00;10.10;72.10
66140;DHT22;52945;51.908;8.364;2024-03-29T06:03:01;10.10;72.30
66140;DHT22;52945;51.908;8.364;2024-03-29T06:06:03;10.10;72.50
66140;DHT22;52945;51.908;8.364;2024-03-29T06:09:03;10.20;72.70
66140;DHT22;52945;51.908;8.364;2024-03-29T06:12:04;10.20;72.90
66140;DHT22;52945;51.908;8.364;2024-03-29T06:15:06;10.10;73.00
66140;DHT22;52945;51.908;8.364;2024-03-29T06:18:25;10.10;73.20
66140;DHT22;52945;51.908;8.364;2024-03-29T06:21:26;10.20;73.40
66140;DHT22;52945;51.908;8.364;2024-03-29T06:24:27;10.10;73.60
66140;DHT22;52945;51.908;8.364;2024-03-29T06:27:27;10.10;73.70
66140;DHT22;52945;51.908;8.364;2024-03-29T06:30:28;10.20;73.80
66140;DHT22;52945;51.908;8.364;2024-03-29T06:33:28;10.10;73.80
66140;DHT22;52945;51.908;8.364;2024-03-29T06:36:29;10.10;73.90
66140;DHT22;52945;51.908;8.364;2024-03-29T06:39:31;10.20;74.10
66140;DHT22;52945;51.908;8.364;2024-03-29T06:42:32;10.20;74.20
66140;DHT22;52945;51.908;8.364;2024-03-29T06:45:33;10.20;74.20
66140;DHT22;52945;51.908;8.364;2024-03-29T06:48:33;10.20;74.30
66140;DHT22;52945;51.908;8.364;2024-03-29T06:51:34;10.20;74.30
66140;DHT22;52945;51.908;8.364;2024-03-29T06:54:34;10.10;74.40
66140;DHT22;52945;51.908;8.364;2024-03-29T06:57:35;10.20;74.40
66140;DHT22;52945;51.908;8.364;2024-03-29T07:00:36;10.10;74.40
66140;DHT22;52945;51.908;8.364;2024-03-29T07:03:36;10.00;74.40
66140;DHT22;52945;51.908;8.364;2024-03-29T07:06:37;9.90;74.30
66140;DHT22;52945;51.908;8.364;2024-03-29T07:09:38;9.90;74.50
66140;DHT22;52945;51.908;8.364;2024-03-29T07:12:39;9.90;74.50
66140;DHT22;52945;51.908;8.364;2024-03-29T07:15:39;9.90;74.40
66140;DHT22;52945;51.908;8.364;2024-03-29T07:18:40;9.90;74.50
66140;DHT22;52945;51.908;8.364;2024-03-29T07:21:41;9.90;74.70
66140;DHT22;52945;51.908;8.364;2024-03-29T07:24:41;9.90;74.60
66140;DHT22;52945;51.908;8.364;2024-03-29T07:27:42;9.90;74.50
66140;DHT22;52945;51.908;8.364;2024-03-29T07:30:42;9.90;74.60
66140;DHT22;52945;51.908;8.364;2024-03-29T07:33:44;9.90;74.50
66140;DHT22;52945;51.908;8.364;2024-03-29T07:36:45;10.00;74.60
66140;DHT22;52945;51.908;8.364;2024-03-29T07:39:45;10.00;74.50
66140;DHT22;52945;51.908;8.364;2024-03-29T07:42:47;10.00;74.60
66140;DHT22;52945;51.908;8.364;2024-03-29T07:45:48;10.10;74.70
66140;DHT22;52945;51.908;8.364;2024-03-29T07:48:49;10.20;74.70
66140;DHT22;52945;51.908;8.364;2024-03-29T07:51:50;10.20;74.60
66140;DHT22;52945;51.908;8.364;2024-03-29T07:54:51;10.20;74.40
66140;DHT22;52945;51.908;8.364;2024-03-29T07:57:51;10.30;74.60
66140;DHT22;52945;51.908;8.364;2024-03-29T08:00:52;10.30;74.80
66140;DHT22;52945;51.908;8.364;2024-03-29T08:03:53;10.40;75.00
66140;DHT22;52945;51.908;8.364;2024-03-29T08:06:54;10.50;74.90
66140;DHT22;52945;51.908;8.364;2024-03-29T08:09:55;10.50;74.70
66140;DHT22;52945;51.908;8.364;2024-03-29T08:12:55;10.60;74.60
66140;DHT22;52945;51.908;8.364;2024-03-29T08:15:58;10.70;74.60
66140;DHT22;52945;51.908;8.364;2024-03-29T08:18:59;10.60;74.40
66140;DHT22;52945;51.908;8.364;2024-03-29T08:22:00;10.70;74.50
66140;DHT22;52945;51.908;8.364;2024-03-29T08:25:01;10.70;74.70
66140;DHT22;52945;51.908;8.364;2024-03-29T08:28:02;10.80;74.90
66140;DHT22;52945;51.908;8.364;2024-03-29T08:31:04;10.70;75.00
66140;DHT22;52945;51.908;8.364;2024-03-29T08:34:06;10.80;75.00
66140;DHT22;52945;51.908;8.364;2024-03-29T08:37:08;10.80;75.20
66140;DHT22;52945;51.908;8.364;2024-03-29T08:40:09;10.90;75.30
66140;DHT22;52945;51.908;8.364;2024-03-29T08:43:09;11.00;75.20
66140;DHT22;52945;51.908;8.364;2024-03-29T08:46:10;11.00;75.20
66140;DHT22;52945;51.908;8.364;2024-03-29T08:49:10;11.00;75.10
66140;DHT22;52945;51.908;8.364;2024-03-29T08:52:11;11.10;75.20
66140;DHT22;52945;51.908;8.364;2024-03-29T08:55:11;11.20;74.90
66140;DHT22;52945;51.908;8.364;2024-03-29T08:58:12;11.20;74.80
66140;DHT22;52945;51.908;8.364;2024-03-29T09:01:13;11.20;74.40
66140;DHT22;52945;51.908;8.364;2024-03-29T09:04:15;11.30;74.30
66140;DHT22;52945;51.908;8.364;2024-03-29T09:07:16;11.40;74.10
66140;DHT22;52945;51.908;8.364;2024-03-29T09:10:17;11.50;73.70
66140;DHT22;52945;51.908;8.364;2024-03-29T09:13:18;11.60;73.70
66140;DHT22;52945;51.908;8.364;2024-03-29T09:16:18;11.60;73.40
66140;DHT22;52945;51.908;8.364;2024-03-29T09:19:19;11.70;73.40
66140;DHT22;52945;51.908;8.364;2024-03-29T09:22:20;11.70;73.50
66140;DHT22;52945;51.908;8.364;2024-03-29T09:25:20;11.90;73.80
66140;DHT22;52945;51.908;8.364;2024-03-29T09:28:24;11.90;74.20
66140;DHT22;52945;51.908;8.364;2024-03-29T09:31:25;12.00;74.30
66140;DHT22;52945;51.908;8.364;2024-03-29T09:34:25;12.00;74.30
66140;DHT22;52945;51.908;8.364;2024-03-29T09:37:26;12.10;74.10
66140;DHT22;52945;51.908;8.364;2024-03-29T09:40:27;12.10;74.00
66140;DHT22;52945;51.908;8.364;2024-03-29T09:43:30;12.20;73.70
66140;DHT22;52945;51.908;8.364;2024-03-29T09:46:31;12.20;73.00
66140;DHT22;52945;51.908;8.364;2024-03-29T09:49:32;12.30;72.80
66140;DHT22;52945;51.908;8.364;2024-03-29T09:52:34;12.30;72.60
66140;DHT22;52945;51.908;8.364;2024-03-29T09:55:36;12.30;72.10
66140;DHT22;52945;51.908;8.364;2024-03-29T09:58:38;12.50;72.00
66140;DHT22;52945;51.908;8.364;2024-03-29T10:01:39;12.50;71.70
66140;DHT22;52945;51.908;8.364;2024-03-29T10:04:40;12.70;71.50
66140;DHT22;52945;51.908;8.364;2024-03-29T10:07:42;12.70;71.40
66140;DHT22;52945;51.908;8.364;2024-03-29T10:10:43;12.70;71.00
66140;DHT22;52945;51.908;8.364;2024-03-29T10:13:44;12.70;70.80
66140;DHT22;52945;51.908;8.364;2024-03-29T10:16:46;12.90;71.00
66140;DHT22;52945;51.908;8.364;2024-03-29T10:19:47;12.90;70.80
66140;DHT22;52945;51.908;8.364;2024-03-29T10:22:48;13.00;70.70
66140;DHT22;52945;51.908;8.364;2024-03-29T10:25:49;13.10;70.60
66140;DHT22;52945;51.908;8.364;2024-03-29T10:28:49;13.10;70.70
66140;DHT22;52945;51.908;8.364;2024-03-29T10:31:51;13.20;70.10
66140;DHT22;52945;51.908;8.364;2024-03-29T10:34:52;13.20;70.30
66140;DHT22;52945;51.908;8.364;2024-03-29T10:37:53;13.30;69.70
66140;DHT22;52945;51.908;8.364;2024-03-29T10:40:54;13.40;69.80
66140;DHT22;52945;51.908;8.364;2024-03-29T10:43:56;13.40;69.70
66140;DHT22;52945;51.908;8.364;2024-03-29T10:46:58;13.40;69.40
66140;DHT22;52945;51.908;8.364;2024-03-29T10:49:59;13.50;69.50
66140;DHT22;52945;51.908;8.364;2024-03-29T10:53:00;13.50;69.20
66140;DHT22;52945;51.908;8.364;2024-03-29T10:56:07;13.60;69.20
66140;DHT22;52945;51.908;8.364;2024-03-29T10:59:21;13.60;68.90
66140;DHT22;52945;51.908;8.364;2024-03-29T11:02:33;13.70;68.80
66140;DHT22;52945;51.908;8.364;2024-03-29T11:05:37;13.70;68.80
66140;DHT22;52945;51.908;8.364;2024-03-29T11:08:39;13.70;68.50
66140;DHT22;52945;51.908;8.364;2024-03-29T11:11:50;13.70;68.30
66140;DHT22;52945;51.908;8.364;2024-03-29T11:15:02;13.80;68.40
66140;DHT22;52945;51.908;8.364;2024-03-29T11:18:03;13.80;67.90
66140;DHT22;52945;51.908;8.364;2024-03-29T11:21:05;13.90;67.80
66140;DHT22;52945;51.908;8.364;2024-03-29T11:24:11;14.00;67.10
66140;DHT22;52945;51.908;8.364;2024-03-29T11:27:11;14.10;67.00
66140;DHT22;52945;51.908;8.364;2024-03-29T11:30:17;14.20;67.10
66140;DHT22;52945;51.908;8.364;2024-03-29T11:33:34;14.20;66.90
66140;DHT22;52945;51.908;8.364;2024-03-29T11:36:35;14.30;66.90
66140;DHT22;52945;51.908;8.364;2024-03-29T11:39:39;14.40;66.70
66140;DHT22;52945;51.908;8.364;2024-03-29T11:42:44;14.40;65.80
66140;DHT22;52945;51.908;8.364;2024-03-29T11:45:48;14.50;66.10
66140;DHT22;52945;51.908;8.364;2024-03-29T11:48:52;14.60;66.20
66140;DHT22;52945;51.908;8.364;2024-03-29T11:52:06;14.60;65.00
66140;DHT22;52945;51.908;8.364;2024-03-29T11:55:06;14.70;65.20
66140;DHT22;52945;51.908;8.364;2024-03-29T11:58:08;14.70;65.10
66140;DHT22;52945;51.908;8.364;2024-03-29T12:01:08;14.80;65.20
66140;DHT22;52945;51.908;8.364;2024-03-29T12:04:21;14.90;65.00
66140;DHT22;52945;51.908;8.364;2024-03-29T12:07:22;14.90;64.60
66140;DHT22;52945;51.908;8.364;2024-03-29T12:10:27;15.00;64.70
66140;DHT22;52945;51.908;8.364;2024-03-29T12:13:28;15.00;64.40
66140;DHT22;52945;51.908;8.364;2024-03-29T12:16:30;15.10;64.10
66140;DHT22;52945;51.908;8.364;2024-03-29T12:19:31;15.10;64.20
66140;DHT22;52945;51.908;8.364;2024-03-29T12:22:33;15.10;63.50
66140;DHT22;52945;51.908;8.364;2024-03-29T12:25:34;15.20;63.60
66140;DHT22;52945;51.908;8.364;2024-03-29T12:28:35;15.20;62.80
66140;DHT22;52945;51.908;8.364;2024-03-29T12:31:36;15.30;61.90
66140;DHT22;52945;51.908;8.364;2024-03-29T12:34:38;15.30;61.70
66140;DHT22;52945;51.908;8.364;2024-03-29T12:37:48;15.60;62.90
66140;DHT22;52945;51.908;8.364;2024-03-29T12:40:52;15.60;61.20
66140;DHT22;52945;51.908;8.364;2024-03-29T12:43:53;15.60;60.80
66140;DHT22;52945;51.908;8.364;2024-03-29T12:46:54;15.70;60.60
66140;DHT22;52945;51.908;8.364;2024-03-29T12:49:54;15.70;60.80
66140;DHT22;52945;51.908;8.364;2024-03-29T12:53:00;15.70;60.80
66140;DHT22;52945;51.908;8.364;2024-03-29T12:56:01;16.00;60.40
66140;DHT22;52945;51.908;8.364;2024-03-29T12:59:01;16.20;60.30
66140;DHT22;52945;51.908;8.364;2024-03-29T13:02:02;16.30;60.30
66140;DHT22;52945;51.908;8.364;2024-03-29T13:05:04;16.50;60.70
66140;DHT22;52945;51.908;8.364;2024-03-29T13:08:05;16.70;58.40
66140;DHT22;52945;51.908;8.364;2024-03-29T13:11:07;16.90;57.90
66140;DHT22;52945;51.908;8.364;2024-03-29T13:14:08;17.00;57.10
66140;DHT22;52945;51.908;8.364;2024-03-29T13:17:09;17.00;57.30
66140;DHT22;52945;51.908;8.364;2024-03-29T13:20:11;16.90;57.60
66140;DHT22;52945;51.908;8.364;2024-03-29T13:23:12;16.90;57.20
66140;DHT22;52945;51.908;8.364;2024-03-29T13:26:13;16.80;57.30
66140;DHT22;52945;51.908;8.364;2024-03-29T13:29:14;16.90;57.20
66140;DHT22;52945;51.908;8.364;2024-03-29T13:32:15;17.00;57.00
66140;DHT22;52945;51.908;8.364;2024-03-29T13:35:16;17.00;56.70
66140;DHT22;52945;51.908;8.364;2024-03-29T13:38:17;17.00;56.90
66140;DHT22;52945;51.908;8.364;2024-03-29T13:41:21;17.00;56.90
66140;DHT22;52945;51.908;8.364;2024-03-29T13:44:22;17.10;56.40
66140;DHT22;52945;51.908;8.364;2024-03-29T13:47:22;17.00;56.50
66140;DHT22;52945;51.908;8.364;2024-03-29T13:50:23;17.00;56.60
66140;DHT22;52945;51.908;8.364;2024-03-29T13:53:24;17.00;56.80
66140;DHT22;52945;51.908;8.364;2024-03-29T13:56:24;17.00;56.80
66140;DHT22;52945;51.908;8.364;2024-03-29T13:59:25;17.10;57.00
66140;DHT22;52945;51.908;8.364;2024-03-29T14:02:26;17.00;56.80
66140;DHT22;52945;51.908;8.364;2024-03-29T14:05:28;17.00;56.70
66140;DHT22;52945;51.908;8.364;2024-03-29T14:08:28;16.90;56.80
66140;DHT22;52945;51.908;8.364;2024-03-29T14:11:29;16.90;56.90
66140;DHT22;52945;51.908;8.364;2024-03-29T14:14:30;16.90;56.50
66140;DHT22;52945;51.908;8.364;2024-03-29T14:17:31;16.80;56.90
66140;DHT22;52945;51.908;8.364;2024-03-29T14:20:31;17.00;57.00
66140;DHT22;52945;51.908;8.364;2024-03-29T14:23:32;17.00;57.10
66140;DHT22;52945;51.908;8.364;2024-03-29T14:26:33;17.20;56.50
66140;DHT22;52945;51.908;8.364;2024-03-29T14:29:34;17.20;56.20
66140;DHT22;52945;51.908;8.364;2024-03-29T14:32:34;17.40;56.70
66140;DHT22;52945;51.908;8.364;2024-03-29T14:35:35;17.60;56.20
66140;DHT22;52945;51.908;8.364;2024-03-29T14:38:36;17.70;54.90
66140;DHT22;52945;51.908;8.364;2024-03-29T14:41:36;17.70;54.60
66140;DHT22;52945;51.908;8.364;2024-03-29T14:44:40;17.60;54.40
66140;DHT22;52945;51.908;8.364;2024-03-29T14:47:41;17.60;54.60
66140;DHT22;52945;51.908;8.364;2024-03-29T14:50:42;17.50;54.50
66140;DHT22;52945;51.908;8.364;2024-03-29T14:53:43;17.30;55.00
66140;DHT22;52945;51.908;8.364;2024-03-29T14:56:49;17.50;54.80
66140;DHT22;52945;51.908;8.364;2024-03-29T14:59:49;17.70;54.60
66140;DHT22;52945;51.908;8.364;2024-03-29T15:02:50;17.60;54.60
66140;DHT22;52945;51.908;8.364;2024-03-29T15:05:55;17.50;55.30
66140;DHT22;52945;51.908;8.364;2024-03-29T15:08:56;17.30;55.80
66140;DHT22;52945;51.908;8.364;2024-03-29T15:12:00;17.20;55.80
66140;DHT22;52945;51.908;8.364;2024-03-29T15:15:01;17.20;56.40
66140;DHT22;52945;51.908;8.364;2024-03-29T15:18:05;17.10;56.80
66140;DHT22;52945;51.908;8.364;2024-03-29T15:21:06;17.00;57.20
66140;DHT22;52945;51.908;8.364;2024-03-29T15:24:09;17.10;57.40
66140;DHT22;52945;51.908;8.364;2024-03-29T15:27:09;17.10;57.50
66140;DHT22;52945;51.908;8.364;2024-03-29T15:30:27;17.00;58.10
66140;DHT22;52945;51.908;8.364;2024-03-29T15:33:28;17.00;57.40
66140;DHT22;52945;51.908;8.364;2024-03-29T15:36:29;16.90;57.80
66140;DHT22;52945;51.908;8.364;2024-03-29T15:39:30;16.80;57.90
66140;DHT22;52945;51.908;8.364;2024-03-29T15:42:31;16.80;58.40
66140;DHT22;52945;51.908;8.364;2024-03-29T15:45:31;16.80;58.20
66140;DHT22;52945;51.908;8.364;2024-03-29T15:48:32;16.80;58.60
66140;DHT22;52945;51.908;8.364;2024-03-29T15:51:32;16.70;58.70
66140;DHT22;52945;51.908;8.364;2024-03-29T15:54:34;16.80;58.90
66140;DHT22;52945;51.908;8.364;2024-03-29T15:57:36;16.80;58.90
66140;DHT22;52945;51.908;8.364;2024-03-29T16:00:36;16.70;58.90
66140;DHT22;52945;51.908;8.364;2024-03-29T16:03:43;16.70;59.20
66140;DHT22;52945;51.908;8.364;2024-03-29T16:06:43;16.70;59.20
66140;DHT22;52945;51.908;8.364;2024-03-29T16:09:47;16.70;59.00
66140;DHT22;52945;51.908;8.364;2024-03-29T16:12:47;16.70;59.30
66140;DHT22;52945;51.908;8.364;2024-03-29T16:15:49;16.70;59.10
66140;DHT22;52945;51.908;8.364;2024-03-29T16:18:50;16.90;59.30
66140;DHT22;52945;51.908;8.364;2024-03-29T16:21:50;16.90;58.90
66140;DHT22;52945;51.908;8.364;2024-03-29T16:24:51;16.80;58.80
66140;DHT22;52945;51.908;8.364;2024-03-29T16:27:55;16.80;59.00
66140;DHT22;52945;51.908;8.364;2024-03-29T16:30:55;16.70;59.50
66140;DHT22;52945;51.908;8.364;2024-03-29T16:33:56;16.60;58.90
66140;DHT22;52945;51.908;8.364;2024-03-29T16:36:57;16.50;59.50
66140;DHT22;52945;51.908;8.364;2024-03-29T16:39:57;16.50;59.20
66140;DHT22;52945;51.908;8.364;2024-03-29T16:42:58;16.40;59.50
66140;DHT22;52945;51.908;8.364;2024-03-29T16:45:58;16.40;59.50
66140;DHT22;52945;51.908;8.364;2024-03-29T16:48:59;16.30;60.00
66140;DHT22;52945;51.908;8.364;2024-03-29T16:52:01;16.20;60.20
66140;DHT22;52945;51.908;8.364;2024-03-29T16:55:02;16.10;60.40
66140;DHT22;52945;51.908;8.364;2024-03-29T16:58:02;16.10;60.30
66140;DHT22;52945;51.908;8.364;2024-03-29T17:01:03;16.10;60.60
66140;DHT22;52945;51.908;8.364;2024-03-29T17:04:05;16.10;60.70
66140;DHT22;52945;51.908;8.364;2024-03-29T17:07:06;16.00;60.80
66140;DHT22;52945;51.908;8.364;2024-03-29T17:10:06;16.00;60.50
66140;DHT22;52945;51.908;8.364;2024-03-29T17:13:07;15.90;60.90
66140;DHT22;52945;51.908;8.364;2024-03-29T17:16:08;15.90;61.00
66140;DHT22;52945;51.908;8.364;2024-03-29T17:19:08;15.90;61.10
66140;DHT22;52945;51.908;8.364;2024-03-29T17:22:09;15.80;61.10
66140;DHT22;52945;51.908;8.364;2024-03-29T17:25:09;15.80;61.10
66140;DHT22;52945;51.908;8.364;2024-03-29T17:28:10;15.80;61.10
66140;DHT22;52945;51.908;8.364;2024-03-29T17:31:10;15.70;61.10
66140;DHT22;52945;51.908;8.364;2024-03-29T17:34:12;15.70;61.40
66140;DHT22;52945;51.908;8.364;2024-03-29T17:37:13;15.70;61.20
66140;DHT22;52945;51.908;8.364;2024-03-29T17:40:16;15.60;61.30
66140;DHT22;52945;51.908;8.364;2024-03-29T17:43:16;15.60;61.50
66140;DHT22;52945;51.908;8.364;2024-03-29T17:46:17;15.60;61.40
66140;DHT22;52945;51.908;8.364;2024-03-29T17:49:17;15.60;61.50
66140;DHT22;52945;51.908;8.364;2024-03-29T17:52:18;15.60;61.50
66140;DHT22;52945;51.908;8.364;2024-03-29T17:55:19;15.60;61.70
66140;DHT22;52945;51.908;8.364;2024-03-29T17:58:20;15.50;61.70
66140;DHT22;52945;51.908;8.364;2024-03-29T18:01:20;15.60;61.80
66140;DHT22;52945;51.908;8.364;2024-03-29T18:04:21;15.60;61.60
66140;DHT22;52945;51.908;8.364;2024-03-29T18:07:21;15.50;61.30
66140;DHT22;52945;51.908;8.364;2024-03-29T18:10:22;15.50;61.50
66140;DHT22;52945;51.908;8.364;2024-03-29T18:13:23;15.40;61.40
66140;DHT22;52945;51.908;8.364;2024-03-29T18:16:23;15.40;61.40
66140;DHT22;52945;51.908;8.364;2024-03-29T18:19:24;15.30;61.50
66140;DHT22;52945;51.908;8.364;2024-03-29T18:22:24;15.20;61.70
66140;DHT22;52945;51.908;8.364;2024-03-29T18:25:25;15.30;61.90
66140;DHT22;52945;51.908;8.364;2024-03-29T18:28:28;15.20;61.80
66140;DHT22;52945;51.908;8.364;2024-03-29T18:31:29;15.20;61.80
66140;DHT22;52945;51.908;8.364;2024-03-29T18:34:29;15.20;61.90
66140;DHT22;52945;51.908;8.364;2024-03-29T18:37:30;15.20;62.00
66140;DHT22;52945;51.908;8.364;2024-03-29T18:40:31;15.20;62.00
66140;DHT22;52945;51.908;8.364;2024-03-29T18:43:31;15.20;62.00
66140;DHT22;52945;51.908;8.364;2024-03-29T18:46:32;15.20;62.10
66140;DHT22;52945;51.908;8.364;2024-03-29T18:49:32;15.20;62.20
66140;DHT22;52945;51.908;8.364;2024-03-29T18:52:33;15.10;62.20
66140;DHT22;52945;51.908;8.364;2024-03-29T18:55:34;15.10;62.30
66140;DHT22;52945;51.908;8.364;2024-03-29T18:58:34;15.10;62.40
66140;DHT22;52945;51.908;8.364;2024-03-29T19:01:35;15.10;62.60
66140;DHT22;52945;51.908;8.364;2024-03-29T19:04:36;15.10;62.70
66140;DHT22;52945;51.908;8.364;2024-03-29T19:07:37;15.00;62.70